sensor_id;sensor_type;location;lat;lon;timestamp;P1;durP1;ratioP1;P2;durP2;ratioP2
65691;SDS011;52411;52.716;6.696;2024-01-30T00:00:06;26.10;;;16.73;;
65691;SDS011;52411;52.716;6.696;2024-01-30T00:02:33;30.45;;;18.17;;
65691;SDS011;52411;52.716;6.696;2024-01-30T00:04:58;31.15;;;17.45;;
65691;SDS011;52411;52.716;6.696;2024-01-30T00:07:24;29.95;;;17.83;;
65691;SDS011;52411;52.716;6.696;2024-01-30T00:09:49;27.52;;;17.02;;
65691;SDS011;52411;52.716;6.696;2024-01-30T00:12:15;30.63;;;17.83;;
65691;SDS011;52411;52.716;6.696;2024-01-30T00:14:41;34.60;;;18.63;;
65691;SDS011;52411;52.716;6.696;2024-01-30T00:17:08;29.08;;;17.92;;
65691;SDS011;52411;52.716;6.696;2024-01-30T00:19:34;30.17;;;17.45;;
65691;SDS011;52411;52.716;6.696;2024-01-30T00:21:59;32.35;;;17.67;;
65691;SDS011;52411;52.716;6.696;2024-01-30T00:24:25;28.23;;;16.52;;
65691;SDS011;52411;52.716;6.696;2024-01-30T00:26:50;29.10;;;16.60;;
65691;SDS011;52411;52.716;6.696;2024-01-30T00:29:17;29.17;;;16.92;;
65691;SDS011;52411;52.716;6.696;2024-01-30T00:31:44;28.38;;;17.13;;
65691;SDS011;52411;52.716;6.696;2024-01-30T00:34:10;27.15;;;16.77;;
65691;SDS011;52411;52.716;6.696;2024-01-30T00:36:36;28.40;;;16.30;;
65691;SDS011;52411;52.716;6.696;2024-01-30T00:39:02;30.40;;;17.33;;
65691;SDS011;52411;52.716;6.696;2024-01-30T00:41:31;27.95;;;16.98;;
65691;SDS011;52411;52.716;6.696;2024-01-30T00:43:57;30.38;;;16.38;;
65691;SDS011;52411;52.716;6.696;2024-01-30T00:46:22;29.35;;;16.77;;
65691;SDS011;52411;52.716;6.696;2024-01-30T00:48:48;29.45;;;17.42;;
65691;SDS011;52411;52.716;6.696;2024-01-30T00:51:13;26.98;;;16.45;;
65691;SDS011;52411;52.716;6.696;2024-01-30T00:53:39;28.70;;;16.38;;
65691;SDS011;52411;52.716;6.696;2024-01-30T00:56:06;28.73;;;16.55;;
65691;SDS011;52411;52.716;6.696;2024-01-30T00:58:32;27.75;;;15.75;;
65691;SDS011;52411;52.716;6.696;2024-01-30T01:00:59;30.42;;;16.60;;
65691;SDS011;52411;52.716;6.696;2024-01-30T01:03:25;28.67;;;16.80;;
65691;SDS011;52411;52.716;6.696;2024-01-30T01:05:50;29.63;;;17.20;;
65691;SDS011;52411;52.716;6.696;2024-01-30T01:08:16;29.73;;;17.13;;
65691;SDS011;52411;52.716;6.696;2024-01-30T01:10:41;28.98;;;16.50;;
65691;SDS011;52411;52.716;6.696;2024-01-30T01:13:07;29.38;;;17.02;;
65691;SDS011;52411;52.716;6.696;2024-01-30T01:15:32;29.52;;;16.05;;
65691;SDS011;52411;52.716;6.696;2024-01-30T01:17:58;28.42;;;17.05;;
65691;SDS011;52411;52.716;6.696;2024-01-30T01:20:23;28.40;;;16.67;;
65691;SDS011;52411;52.716;6.696;2024-01-30T01:22:49;27.23;;;16.45;;
65691;SDS011;52411;52.716;6.696;2024-01-30T01:25:14;28.98;;;17.58;;
65691;SDS011;52411;52.716;6.696;2024-01-30T01:27:40;29.98;;;17.33;;
65691;SDS011;52411;52.716;6.696;2024-01-30T01:30:08;33.67;;;17.48;;
65691;SDS011;52411;52.716;6.696;2024-01-30T01:32:35;30.50;;;16.70;;
65691;SDS011;52411;52.716;6.696;2024-01-30T01:35:01;32.35;;;17.83;;
65691;SDS011;52411;52.716;6.696;2024-01-30T01:37:27;33.10;;;16.90;;
65691;SDS011;52411;52.716;6.696;2024-01-30T01:39:53;30.17;;;17.58;;
65691;SDS011;52411;52.716;6.696;2024-01-30T01:42:18;28.05;;;17.08;;
65691;SDS011;52411;52.716;6.696;2024-01-30T01:44:44;28.33;;;16.55;;
65691;SDS011;52411;52.716;6.696;2024-01-30T01:47:09;34.35;;;16.65;;
65691;SDS011;52411;52.716;6.696;2024-01-30T01:49:35;29.10;;;17.30;;
65691;SDS011;52411;52.716;6.696;2024-01-30T01:52:01;30.15;;;16.88;;
65691;SDS011;52411;52.716;6.696;2024-01-30T01:54:27;27.00;;;17.00;;
65691;SDS011;52411;52.716;6.696;2024-01-30T01:56:53;28.42;;;16.95;;
65691;SDS011;52411;52.716;6.696;2024-01-30T01:59:19;26.95;;;16.15;;
65691;SDS011;52411;52.716;6.696;2024-01-30T02:01:45;25.65;;;15.60;;
65691;SDS011;52411;52.716;6.696;2024-01-30T02:04:14;26.73;;;16.80;;
65691;SDS011;52411;52.716;6.696;2024-01-30T02:06:40;30.30;;;17.05;;
65691;SDS011;52411;52.716;6.696;2024-01-30T02:09:06;30.25;;;17.65;;
65691;SDS011;52411;52.716;6.696;2024-01-30T02:11:32;30.65;;;16.67;;
65691;SDS011;52411;52.716;6.696;2024-01-30T02:14:02;29.00;;;16.70;;
65691;SDS011;52411;52.716;6.696;2024-01-30T02:16:28;25.48;;;16.55;;
65691;SDS011;52411;52.716;6.696;2024-01-30T02:18:55;26.83;;;16.27;;
65691;SDS011;52411;52.716;6.696;2024-01-30T02:21:20;27.58;;;15.75;;
65691;SDS011;52411;52.716;6.696;2024-01-30T02:23:49;28.42;;;16.30;;
65691;SDS011;52411;52.716;6.696;2024-01-30T02:26:15;27.33;;;16.85;;
65691;SDS011;52411;52.716;6.696;2024-01-30T02:28:41;27.60;;;16.55;;
65691;SDS011;52411;52.716;6.696;2024-01-30T02:31:07;27.58;;;16.20;;
65691;SDS011;52411;52.716;6.696;2024-01-30T02:33:32;27.65;;;16.38;;
65691;SDS011;52411;52.716;6.696;2024-01-30T02:35:58;28.40;;;15.65;;
65691;SDS011;52411;52.716;6.696;2024-01-30T02:38:24;27.67;;;15.55;;
65691;SDS011;52411;52.716;6.696;2024-01-30T02:40:51;29.08;;;16.65;;
65691;SDS011;52411;52.716;6.696;2024-01-30T02:43:17;28.35;;;16.30;;
65691;SDS011;52411;52.716;6.696;2024-01-30T02:45:43;29.70;;;16.70;;
65691;SDS011;52411;52.716;6.696;2024-01-30T02:48:08;26.85;;;16.08;;
65691;SDS011;52411;52.716;6.696;2024-01-30T02:50:34;29.48;;;16.27;;
65691;SDS011;52411;52.716;6.696;2024-01-30T02:53:00;26.20;;;15.68;;
65691;SDS011;52411;52.716;6.696;2024-01-30T02:55:25;27.55;;;16.17;;
65691;SDS011;52411;52.716;6.696;2024-01-30T02:57:51;29.73;;;15.88;;
65691;SDS011;52411;52.716;6.696;2024-01-30T03:00:16;25.58;;;15.65;;
65691;SDS011;52411;52.716;6.696;2024-01-30T03:02:42;29.77;;;16.65;;
65691;SDS011;52411;52.716;6.696;2024-01-30T03:05:07;33.42;;;16.63;;
65691;SDS011;52411;52.716;6.696;2024-01-30T03:07:33;27.95;;;16.42;;
65691;SDS011;52411;52.716;6.696;2024-01-30T03:09:59;29.13;;;16.63;;
65691;SDS011;52411;52.716;6.696;2024-01-30T03:12:24;32.10;;;16.40;;
65691;SDS011;52411;52.716;6.696;2024-01-30T03:14:50;27.50;;;16.05;;
65691;SDS011;52411;52.716;6.696;2024-01-30T03:17:15;30.65;;;16.10;;
65691;SDS011;52411;52.716;6.696;2024-01-30T03:19:41;26.55;;;16.38;;
65691;SDS011;52411;52.716;6.696;2024-01-30T03:22:07;30.10;;;16.85;;
65691;SDS011;52411;52.716;6.696;2024-01-30T03:24:32;29.00;;;16.15;;
65691;SDS011;52411;52.716;6.696;2024-01-30T03:26:58;28.38;;;17.15;;
65691;SDS011;52411;52.716;6.696;2024-01-30T03:29:24;26.10;;;15.88;;
65691;SDS011;52411;52.716;6.696;2024-01-30T03:31:49;31.85;;;16.70;;
65691;SDS011;52411;52.716;6.696;2024-01-30T03:34:15;30.00;;;16.05;;
65691;SDS011;52411;52.716;6.696;2024-01-30T03:36:40;29.75;;;16.77;;
65691;SDS011;52411;52.716;6.696;2024-01-30T03:39:06;30.70;;;17.45;;
65691;SDS011;52411;52.716;6.696;2024-01-30T03:41:31;27.38;;;16.17;;
65691;SDS011;52411;52.716;6.696;2024-01-30T03:43:57;34.25;;;16.65;;
65691;SDS011;52411;52.716;6.696;2024-01-30T03:46:23;31.88;;;18.05;;
65691;SDS011;52411;52.716;6.696;2024-01-30T03:48:49;33.78;;;17.15;;
65691;SDS011;52411;52.716;6.696;2024-01-30T03:51:14;28.50;;;16.80;;
65691;SDS011;52411;52.716;6.696;2024-01-30T03:53:43;32.08;;;17.15;;
65691;SDS011;52411;52.716;6.696;2024-01-30T03:56:11;29.92;;;16.17;;
65691;SDS011;52411;52.716;6.696;2024-01-30T03:58:38;29.63;;;17.00;;
65691;SDS011;52411;52.716;6.696;2024-01-30T04:01:03;29.48;;;15.98;;
65691;SDS011;52411;52.716;6.696;2024-01-30T04:03:29;27.35;;;16.30;;
65691;SDS011;52411;52.716;6.696;2024-01-30T04:05:54;29.92;;;17.17;;
65691;SDS011;52411;52.716;6.696;2024-01-30T04:08:20;28.88;;;16.70;;
65691;SDS011;52411;52.716;6.696;2024-01-30T04:10:46;30.58;;;18.02;;
65691;SDS011;52411;52.716;6.696;2024-01-30T04:13:12;27.50;;;15.85;;
65691;SDS011;52411;52.716;6.696;2024-01-30T04:15:38;30.65;;;16.85;;
65691;SDS011;52411;52.716;6.696;2024-01-30T04:18:04;30.63;;;17.17;;
65691;SDS011;52411;52.716;6.696;2024-01-30T04:20:29;33.03;;;17.65;;
65691;SDS011;52411;52.716;6.696;2024-01-30T04:22:55;34.20;;;16.95;;
65691;SDS011;52411;52.716;6.696;2024-01-30T04:25:21;29.98;;;17.90;;
65691;SDS011;52411;52.716;6.696;2024-01-30T04:27:46;32.55;;;17.48;;
65691;SDS011;52411;52.716;6.696;2024-01-30T04:30:12;31.70;;;17.65;;
65691;SDS011;52411;52.716;6.696;2024-01-30T04:32:38;29.10;;;16.58;;
65691;SDS011;52411;52.716;6.696;2024-01-30T04:35:03;30.23;;;17.48;;
65691;SDS011;52411;52.716;6.696;2024-01-30T04:37:29;29.85;;;17.45;;
65691;SDS011;52411;52.716;6.696;2024-01-30T04:39:55;29.38;;;17.15;;
65691;SDS011;52411;52.716;6.696;2024-01-30T04:42:21;30.52;;;17.67;;
65691;SDS011;52411;52.716;6.696;2024-01-30T04:44:47;32.45;;;18.25;;
65691;SDS011;52411;52.716;6.696;2024-01-30T04:47:12;30.30;;;17.08;;
65691;SDS011;52411;52.716;6.696;2024-01-30T04:49:38;29.20;;;16.25;;
65691;SDS011;52411;52.716;6.696;2024-01-30T04:52:05;29.15;;;16.77;;
65691;SDS011;52411;52.716;6.696;2024-01-30T04:54:31;32.65;;;16.70;;
65691;SDS011;52411;52.716;6.696;2024-01-30T04:56:56;28.13;;;17.17;;
65691;SDS011;52411;52.716;6.696;2024-01-30T04:59:22;33.22;;;17.67;;
65691;SDS011;52411;52.716;6.696;2024-01-30T05:01:47;31.52;;;17.40;;
65691;SDS011;52411;52.716;6.696;2024-01-30T05:04:13;30.95;;;17.85;;
65691;SDS011;52411;52.716;6.696;2024-01-30T05:06:39;33.78;;;17.92;;
65691;SDS011;52411;52.716;6.696;2024-01-30T05:09:04;31.13;;;18.60;;
65691;SDS011;52411;52.716;6.696;2024-01-30T05:11:30;31.85;;;18.55;;
65691;SDS011;52411;52.716;6.696;2024-01-30T05:13:56;31.33;;;18.13;;
65691;SDS011;52411;52.716;6.696;2024-01-30T05:16:21;28.88;;;16.77;;
65691;SDS011;52411;52.716;6.696;2024-01-30T05:18:47;30.77;;;17.20;;
65691;SDS011;52411;52.716;6.696;2024-01-30T05:21:13;33.90;;;18.13;;
65691;SDS011;52411;52.716;6.696;2024-01-30T05:23:38;28.70;;;16.90;;
65691;SDS011;52411;52.716;6.696;2024-01-30T05:26:05;32.70;;;17.42;;
65691;SDS011;52411;52.716;6.696;2024-01-30T05:28:30;32.90;;;18.13;;
65691;SDS011;52411;52.716;6.696;2024-01-30T05:30:56;34.67;;;18.08;;
65691;SDS011;52411;52.716;6.696;2024-01-30T05:33:22;33.53;;;18.52;;
65691;SDS011;52411;52.716;6.696;2024-01-30T05:35:47;27.70;;;16.75;;
65691;SDS011;52411;52.716;6.696;2024-01-30T05:38:13;34.00;;;17.30;;
65691;SDS011;52411;52.716;6.696;2024-01-30T05:40:40;27.38;;;16.48;;
65691;SDS011;52411;52.716;6.696;2024-01-30T05:43:06;31.88;;;17.88;;
65691;SDS011;52411;52.716;6.696;2024-01-30T05:45:32;37.65;;;17.55;;
65691;SDS011;52411;52.716;6.696;2024-01-30T05:48:00;32.97;;;17.38;;
65691;SDS011;52411;52.716;6.696;2024-01-30T05:50:26;31.58;;;18.02;;
65691;SDS011;52411;52.716;6.696;2024-01-30T05:52:52;32.42;;;17.65;;
65691;SDS011;52411;52.716;6.696;2024-01-30T05:55:17;29.27;;;16.05;;
65691;SDS011;52411;52.716;6.696;2024-01-30T05:57:43;27.00;;;17.48;;
65691;SDS011;52411;52.716;6.696;2024-01-30T06:00:09;32.28;;;16.90;;
65691;SDS011;52411;52.716;6.696;2024-01-30T06:02:34;30.65;;;16.45;;
65691;SDS011;52411;52.716;6.696;2024-01-30T06:05:00;27.40;;;17.15;;
65691;SDS011;52411;52.716;6.696;2024-01-30T06:07:26;29.45;;;17.17;;
65691;SDS011;52411;52.716;6.696;2024-01-30T06:09:51;31.88;;;18.02;;
65691;SDS011;52411;52.716;6.696;2024-01-30T06:12:17;31.55;;;18.13;;
65691;SDS011;52411;52.716;6.696;2024-01-30T06:14:42;33.17;;;17.73;;
65691;SDS011;52411;52.716;6.696;2024-01-30T06:17:08;30.67;;;18.38;;
65691;SDS011;52411;52.716;6.696;2024-01-30T06:19:34;28.05;;;17.60;;
65691;SDS011;52411;52.716;6.696;2024-01-30T06:22:00;30.10;;;18.52;;
65691;SDS011;52411;52.716;6.696;2024-01-30T06:24:26;31.08;;;18.98;;
65691;SDS011;52411;52.716;6.696;2024-01-30T06:26:52;30.90;;;16.83;;
65691;SDS011;52411;52.716;6.696;2024-01-30T06:29:18;29.38;;;17.58;;
65691;SDS011;52411;52.716;6.696;2024-01-30T06:31:43;28.25;;;16.67;;
65691;SDS011;52411;52.716;6.696;2024-01-30T06:34:09;31.58;;;17.90;;
65691;SDS011;52411;52.716;6.696;2024-01-30T06:36:36;28.58;;;16.63;;
65691;SDS011;52411;52.716;6.696;2024-01-30T06:39:02;26.45;;;16.95;;
65691;SDS011;52411;52.716;6.696;2024-01-30T06:41:28;26.75;;;17.25;;
65691;SDS011;52411;52.716;6.696;2024-01-30T06:43:55;25.05;;;15.98;;
65691;SDS011;52411;52.716;6.696;2024-01-30T06:46:20;26.98;;;16.17;;
65691;SDS011;52411;52.716;6.696;2024-01-30T06:48:46;30.77;;;15.63;;
65691;SDS011;52411;52.716;6.696;2024-01-30T06:51:12;26.92;;;16.48;;
65691;SDS011;52411;52.716;6.696;2024-01-30T06:53:37;30.20;;;15.90;;
65691;SDS011;52411;52.716;6.696;2024-01-30T06:56:03;28.50;;;15.88;;
65691;SDS011;52411;52.716;6.696;2024-01-30T06:58:29;32.55;;;15.93;;
65691;SDS011;52411;52.716;6.696;2024-01-30T07:00:55;27.63;;;16.50;;
65691;SDS011;52411;52.716;6.696;2024-01-30T07:03:21;24.73;;;15.63;;
65691;SDS011;52411;52.716;6.696;2024-01-30T07:05:46;26.42;;;15.60;;
65691;SDS011;52411;52.716;6.696;2024-01-30T07:08:12;25.88;;;16.00;;
65691;SDS011;52411;52.716;6.696;2024-01-30T07:10:38;28.25;;;16.60;;
65691;SDS011;52411;52.716;6.696;2024-01-30T07:13:03;26.38;;;16.00;;
65691;SDS011;52411;52.716;6.696;2024-01-30T07:15:30;29.95;;;15.68;;
65691;SDS011;52411;52.716;6.696;2024-01-30T07:17:56;29.38;;;16.50;;
65691;SDS011;52411;52.716;6.696;2024-01-30T07:20:22;26.88;;;16.42;;
65691;SDS011;52411;52.716;6.696;2024-01-30T07:22:47;26.98;;;15.82;;
65691;SDS011;52411;52.716;6.696;2024-01-30T07:25:13;25.02;;;15.63;;
65691;SDS011;52411;52.716;6.696;2024-01-30T07:27:39;24.70;;;15.25;;
65691;SDS011;52411;52.716;6.696;2024-01-30T07:30:04;26.55;;;16.35;;
65691;SDS011;52411;52.716;6.696;2024-01-30T07:32:30;27.63;;;15.52;;
65691;SDS011;52411;52.716;6.696;2024-01-30T07:34:56;25.45;;;16.95;;
65691;SDS011;52411;52.716;6.696;2024-01-30T07:37:22;26.80;;;15.15;;
65691;SDS011;52411;52.716;6.696;2024-01-30T07:39:48;25.85;;;14.77;;
65691;SDS011;52411;52.716;6.696;2024-01-30T07:42:13;24.58;;;15.20;;
65691;SDS011;52411;52.716;6.696;2024-01-30T07:44:39;25.70;;;16.15;;
65691;SDS011;52411;52.716;6.696;2024-01-30T07:47:04;26.02;;;15.15;;
65691;SDS011;52411;52.716;6.696;2024-01-30T07:49:30;24.85;;;15.50;;
65691;SDS011;52411;52.716;6.696;2024-01-30T07:51:55;23.98;;;14.63;;
65691;SDS011;52411;52.716;6.696;2024-01-30T07:54:21;24.50;;;14.07;;
65691;SDS011;52411;52.716;6.696;2024-01-30T07:56:47;26.77;;;16.02;;
65691;SDS011;52411;52.716;6.696;2024-01-30T07:59:12;25.63;;;14.98;;
65691;SDS011;52411;52.716;6.696;2024-01-30T08:01:38;23.58;;;14.25;;
65691;SDS011;52411;52.716;6.696;2024-01-30T08:04:03;27.08;;;14.52;;
65691;SDS011;52411;52.716;6.696;2024-01-30T08:06:29;24.95;;;15.30;;
65691;SDS011;52411;52.716;6.696;2024-01-30T08:08:55;24.42;;;14.95;;
65691;SDS011;52411;52.716;6.696;2024-01-30T08:11:22;25.85;;;15.02;;
65691;SDS011;52411;52.716;6.696;2024-01-30T08:13:51;23.98;;;14.95;;
65691;SDS011;52411;52.716;6.696;2024-01-30T08:16:17;23.30;;;14.85;;
65691;SDS011;52411;52.716;6.696;2024-01-30T08:18:43;29.83;;;15.68;;
65691;SDS011;52411;52.716;6.696;2024-01-30T08:21:08;24.45;;;14.73;;
65691;SDS011;52411;52.716;6.696;2024-01-30T08:23:34;23.98;;;14.65;;
65691;SDS011;52411;52.716;6.696;2024-01-30T08:25:59;25.88;;;14.85;;
65691;SDS011;52411;52.716;6.696;2024-01-30T08:28:25;23.38;;;14.25;;
65691;SDS011;52411;52.716;6.696;2024-01-30T08:30:51;23.52;;;14.38;;
65691;SDS011;52411;52.716;6.696;2024-01-30T08:33:17;23.10;;;14.35;;
65691;SDS011;52411;52.716;6.696;2024-01-30T08:35:42;24.95;;;15.32;;
65691;SDS011;52411;52.716;6.696;2024-01-30T08:38:08;21.13;;;13.77;;
65691;SDS011;52411;52.716;6.696;2024-01-30T08:40:34;25.10;;;15.43;;
65691;SDS011;52411;52.716;6.696;2024-01-30T08:42:59;25.45;;;14.60;;
65691;SDS011;52411;52.716;6.696;2024-01-30T08:45:25;23.05;;;14.52;;
65691;SDS011;52411;52.716;6.696;2024-01-30T08:47:51;24.63;;;14.80;;
65691;SDS011;52411;52.716;6.696;2024-01-30T08:50:16;26.30;;;14.02;;
65691;SDS011;52411;52.716;6.696;2024-01-30T08:52:42;26.38;;;15.60;;
65691;SDS011;52411;52.716;6.696;2024-01-30T08:55:08;21.80;;;13.43;;
65691;SDS011;52411;52.716;6.696;2024-01-30T08:57:33;25.10;;;14.15;;
65691;SDS011;52411;52.716;6.696;2024-01-30T08:59:59;23.95;;;13.00;;
65691;SDS011;52411;52.716;6.696;2024-01-30T09:02:25;24.95;;;13.88;;
65691;SDS011;52411;52.716;6.696;2024-01-30T09:04:51;23.25;;;14.32;;
65691;SDS011;52411;52.716;6.696;2024-01-30T09:07:16;23.05;;;15.70;;
65691;SDS011;52411;52.716;6.696;2024-01-30T09:09:42;22.88;;;13.10;;
65691;SDS011;52411;52.716;6.696;2024-01-30T09:12:07;24.67;;;15.02;;
65691;SDS011;52411;52.716;6.696;2024-01-30T09:14:34;22.17;;;14.38;;
65691;SDS011;52411;52.716;6.696;2024-01-30T09:17:00;20.08;;;13.60;;
65691;SDS011;52411;52.716;6.696;2024-01-30T09:19:28;20.45;;;12.20;;
65691;SDS011;52411;52.716;6.696;2024-01-30T09:21:53;22.40;;;13.85;;
65691;SDS011;52411;52.716;6.696;2024-01-30T09:24:19;21.63;;;13.45;;
65691;SDS011;52411;52.716;6.696;2024-01-30T09:26:44;21.05;;;13.55;;
65691;SDS011;52411;52.716;6.696;2024-01-30T09:29:10;24.40;;;15.05;;
65691;SDS011;52411;52.716;6.696;2024-01-30T09:31:36;24.83;;;14.57;;
65691;SDS011;52411;52.716;6.696;2024-01-30T09:34:01;23.95;;;13.57;;
65691;SDS011;52411;52.716;6.696;2024-01-30T09:36:27;18.73;;;12.35;;
65691;SDS011;52411;52.716;6.696;2024-01-30T09:38:52;20.52;;;12.68;;
65691;SDS011;52411;52.716;6.696;2024-01-30T09:41:18;22.02;;;12.85;;
65691;SDS011;52411;52.716;6.696;2024-01-30T09:43:46;20.83;;;13.20;;
65691;SDS011;52411;52.716;6.696;2024-01-30T09:46:14;18.60;;;12.48;;
65691;SDS011;52411;52.716;6.696;2024-01-30T09:48:41;23.38;;;13.95;;
65691;SDS011;52411;52.716;6.696;2024-01-30T09:51:08;19.10;;;12.40;;
65691;SDS011;52411;52.716;6.696;2024-01-30T09:53:35;23.88;;;14.40;;
65691;SDS011;52411;52.716;6.696;2024-01-30T09:56:02;18.55;;;12.65;;
65691;SDS011;52411;52.716;6.696;2024-01-30T09:58:27;20.48;;;12.52;;
65691;SDS011;52411;52.716;6.696;2024-01-30T10:00:53;20.38;;;12.68;;
65691;SDS011;52411;52.716;6.696;2024-01-30T10:03:19;19.42;;;12.18;;
65691;SDS011;52411;52.716;6.696;2024-01-30T10:05:48;23.38;;;12.68;;
65691;SDS011;52411;52.716;6.696;2024-01-30T10:08:17;19.95;;;11.85;;
65691;SDS011;52411;52.716;6.696;2024-01-30T10:10:45;21.10;;;11.63;;
65691;SDS011;52411;52.716;6.696;2024-01-30T10:13:15;21.67;;;12.50;;
65691;SDS011;52411;52.716;6.696;2024-01-30T10:15:41;18.60;;;12.52;;
65691;SDS011;52411;52.716;6.696;2024-01-30T10:18:06;21.15;;;11.43;;
65691;SDS011;52411;52.716;6.696;2024-01-30T10:20:33;21.05;;;11.13;;
65691;SDS011;52411;52.716;6.696;2024-01-30T10:22:59;21.25;;;11.73;;
65691;SDS011;52411;52.716;6.696;2024-01-30T10:25:25;18.90;;;12.43;;
65691;SDS011;52411;52.716;6.696;2024-01-30T10:27:54;18.92;;;11.57;;
65691;SDS011;52411;52.716;6.696;2024-01-30T10:30:21;23.33;;;12.57;;
65691;SDS011;52411;52.716;6.696;2024-01-30T10:32:47;18.20;;;11.63;;
65691;SDS011;52411;52.716;6.696;2024-01-30T10:35:13;19.65;;;12.73;;
65691;SDS011;52411;52.716;6.696;2024-01-30T10:37:38;21.77;;;11.68;;
65691;SDS011;52411;52.716;6.696;2024-01-30T10:40:04;18.48;;;12.00;;
65691;SDS011;52411;52.716;6.696;2024-01-30T10:42:31;18.98;;;11.30;;
65691;SDS011;52411;52.716;6.696;2024-01-30T10:45:07;21.10;;;12.30;;
65691;SDS011;52411;52.716;6.696;2024-01-30T10:47:34;19.50;;;11.98;;
65691;SDS011;52411;52.716;6.696;2024-01-30T10:50:03;18.58;;;12.07;;
65691;SDS011;52411;52.716;6.696;2024-01-30T10:52:31;22.35;;;12.93;;
65691;SDS011;52411;52.716;6.696;2024-01-30T10:54:57;24.98;;;12.57;;
65691;SDS011;52411;52.716;6.696;2024-01-30T10:57:23;22.45;;;13.02;;
65691;SDS011;52411;52.716;6.696;2024-01-30T10:59:51;22.08;;;13.15;;
65691;SDS011;52411;52.716;6.696;2024-01-30T11:02:20;20.83;;;12.77;;
65691;SDS011;52411;52.716;6.696;2024-01-30T11:04:46;19.30;;;11.75;;
65691;SDS011;52411;52.716;6.696;2024-01-30T11:07:16;19.50;;;11.60;;
65691;SDS011;52411;52.716;6.696;2024-01-30T11:09:50;17.50;;;11.52;;
65691;SDS011;52411;52.716;6.696;2024-01-30T11:12:32;19.00;;;12.20;;
65691;SDS011;52411;52.716;6.696;2024-01-30T11:15:03;20.83;;;11.60;;
65691;SDS011;52411;52.716;6.696;2024-01-30T11:20:50;19.63;;;11.77;;
65691;SDS011;52411;52.716;6.696;2024-01-30T11:22:57;20.92;;;11.55;;
65691;SDS011;52411;52.716;6.696;2024-01-30T11:25:24;22.40;;;11.18;;
65691;SDS011;52411;52.716;6.696;2024-01-30T11:27:54;23.55;;;12.20;;
65691;SDS011;52411;52.716;6.696;2024-01-30T11:30:30;25.35;;;12.02;;
65691;SDS011;52411;52.716;6.696;2024-01-30T11:35:30;19.92;;;11.95;;
65691;SDS011;52411;52.716;6.696;2024-01-30T11:38:00;19.77;;;12.10;;
65691;SDS011;52411;52.716;6.696;2024-01-30T11:40:29;23.60;;;12.27;;
65691;SDS011;52411;52.716;6.696;2024-01-30T11:42:56;22.00;;;12.95;;
65691;SDS011;52411;52.716;6.696;2024-01-30T11:45:24;21.67;;;12.55;;
65691;SDS011;52411;52.716;6.696;2024-01-30T11:47:49;21.17;;;12.50;;
65691;SDS011;52411;52.716;6.696;2024-01-30T11:50:15;21.63;;;12.68;;
65691;SDS011;52411;52.716;6.696;2024-01-30T11:52:41;22.05;;;12.45;;
65691;SDS011;52411;52.716;6.696;2024-01-30T11:55:08;18.23;;;12.30;;
65691;SDS011;52411;52.716;6.696;2024-01-30T11:57:34;20.65;;;13.10;;
65691;SDS011;52411;52.716;6.696;2024-01-30T12:00:03;20.48;;;12.30;;
65691;SDS011;52411;52.716;6.696;2024-01-30T12:02:35;20.90;;;12.57;;
65691;SDS011;52411;52.716;6.696;2024-01-30T12:05:05;18.38;;;12.57;;
65691;SDS011;52411;52.716;6.696;2024-01-30T12:07:31;19.63;;;12.02;;
65691;SDS011;52411;52.716;6.696;2024-01-30T12:09:57;22.75;;;12.65;;
65691;SDS011;52411;52.716;6.696;2024-01-30T12:12:26;23.63;;;13.38;;
65691;SDS011;52411;52.716;6.696;2024-01-30T12:14:53;22.17;;;12.13;;
65691;SDS011;52411;52.716;6.696;2024-01-30T12:20:10;22.70;;;11.30;;
65691;SDS011;52411;52.716;6.696;2024-01-30T12:22:40;18.70;;;11.98;;
65691;SDS011;52411;52.716;6.696;2024-01-30T12:25:11;25.60;;;11.60;;
65691;SDS011;52411;52.716;6.696;2024-01-30T12:27:38;22.45;;;11.93;;
65691;SDS011;52411;52.716;6.696;2024-01-30T12:30:11;23.95;;;12.57;;
65691;SDS011;52411;52.716;6.696;2024-01-30T12:32:39;20.10;;;11.23;;
65691;SDS011;52411;52.716;6.696;2024-01-30T12:35:12;18.25;;;11.63;;
65691;SDS011;52411;52.716;6.696;2024-01-30T12:37:39;17.98;;;11.27;;
65691;SDS011;52411;52.716;6.696;2024-01-30T12:40:09;20.40;;;12.07;;
65691;SDS011;52411;52.716;6.696;2024-01-30T12:42:36;22.38;;;14.30;;
65691;SDS011;52411;52.716;6.696;2024-01-30T12:45:02;22.73;;;13.95;;
65691;SDS011;52411;52.716;6.696;2024-01-30T12:47:31;24.40;;;13.18;;
65691;SDS011;52411;52.716;6.696;2024-01-30T12:49:57;18.77;;;12.98;;
65691;SDS011;52411;52.716;6.696;2024-01-30T12:52:23;22.73;;;13.02;;
65691;SDS011;52411;52.716;6.696;2024-01-30T12:54:49;23.70;;;13.00;;
65691;SDS011;52411;52.716;6.696;2024-01-30T12:57:15;25.00;;;12.88;;
65691;SDS011;52411;52.716;6.696;2024-01-30T12:59:41;17.95;;;12.70;;
65691;SDS011;52411;52.716;6.696;2024-01-30T13:02:08;18.88;;;12.40;;
65691;SDS011;52411;52.716;6.696;2024-01-30T13:04:34;19.70;;;12.25;;
65691;SDS011;52411;52.716;6.696;2024-01-30T13:07:00;22.30;;;11.82;;
65691;SDS011;52411;52.716;6.696;2024-01-30T13:09:26;19.77;;;11.30;;
65691;SDS011;52411;52.716;6.696;2024-01-30T13:11:51;20.27;;;11.15;;
65691;SDS011;52411;52.716;6.696;2024-01-30T13:14:17;17.75;;;10.13;;
65691;SDS011;52411;52.716;6.696;2024-01-30T13:16:43;16.48;;;10.00;;
65691;SDS011;52411;52.716;6.696;2024-01-30T13:19:09;17.17;;;9.25;;
65691;SDS011;52411;52.716;6.696;2024-01-30T13:21:34;14.77;;;8.70;;
65691;SDS011;52411;52.716;6.696;2024-01-30T13:24:00;10.95;;;7.30;;
65691;SDS011;52411;52.716;6.696;2024-01-30T13:26:25;16.48;;;7.93;;
65691;SDS011;52411;52.716;6.696;2024-01-30T13:28:51;12.52;;;7.63;;
65691;SDS011;52411;52.716;6.696;2024-01-30T13:31:16;10.50;;;7.32;;
65691;SDS011;52411;52.716;6.696;2024-01-30T13:33:42;9.70;;;6.05;;
65691;SDS011;52411;52.716;6.696;2024-01-30T13:36:10;10.15;;;5.80;;
65691;SDS011;52411;52.716;6.696;2024-01-30T13:38:36;11.15;;;5.90;;
65691;SDS011;52411;52.716;6.696;2024-01-30T13:41:02;10.27;;;5.25;;
65691;SDS011;52411;52.716;6.696;2024-01-30T13:43:28;8.20;;;5.35;;
65691;SDS011;52411;52.716;6.696;2024-01-30T13:45:53;8.95;;;5.07;;
65691;SDS011;52411;52.716;6.696;2024-01-30T13:48:20;14.00;;;5.35;;
65691;SDS011;52411;52.716;6.696;2024-01-30T13:50:45;7.55;;;5.07;;
65691;SDS011;52411;52.716;6.696;2024-01-30T13:53:11;9.02;;;5.57;;
65691;SDS011;52411;52.716;6.696;2024-01-30T13:55:37;7.40;;;5.20;;
65691;SDS011;52411;52.716;6.696;2024-01-30T13:58:04;10.45;;;6.00;;
65691;SDS011;52411;52.716;6.696;2024-01-30T14:00:30;11.30;;;6.45;;
65691;SDS011;52411;52.716;6.696;2024-01-30T14:02:56;9.15;;;5.82;;
65691;SDS011;52411;52.716;6.696;2024-01-30T14:05:23;11.18;;;6.10;;
65691;SDS011;52411;52.716;6.696;2024-01-30T14:07:49;10.32;;;6.13;;
65691;SDS011;52411;52.716;6.696;2024-01-30T14:10:16;11.23;;;5.70;;
65691;SDS011;52411;52.716;6.696;2024-01-30T14:12:42;8.20;;;5.78;;
65691;SDS011;52411;52.716;6.696;2024-01-30T14:15:09;11.93;;;5.03;;
65691;SDS011;52411;52.716;6.696;2024-01-30T14:17:35;9.35;;;4.72;;
65691;SDS011;52411;52.716;6.696;2024-01-30T14:20:01;6.32;;;4.35;;
65691;SDS011;52411;52.716;6.696;2024-01-30T14:22:28;6.82;;;4.35;;
65691;SDS011;52411;52.716;6.696;2024-01-30T14:24:53;6.07;;;4.03;;